createdAt,value
2023-05-20T00:00:01.896Z,17.70
2023-05-20T00:02:29.239Z,17.63
2023-05-20T00:04:56.724Z,17.56
2023-05-20T00:07:24.203Z,17.55
2023-05-20T00:09:51.921Z,17.47
2023-05-20T00:12:19.069Z,17.39
2023-05-20T00:14:45.955Z,17.29
2023-05-20T00:17:12.919Z,17.18
2023-05-20T00:19:39.759Z,17.11
2023-05-20T00:22:08.462Z,17.04
2023-05-20T00:24:35.478Z,16.97
2023-05-20T00:27:03.202Z,16.85
2023-05-20T00:29:30.617Z,16.82
2023-05-20T00:31:58.117Z,16.77
2023-05-20T00:34:28.120Z,16.75
2023-05-20T00:36:59.743Z,16.69
2023-05-20T00:39:26.880Z,16.62
2023-05-20T00:41:54.088Z,16.57
2023-05-20T00:44:24.169Z,16.53
2023-05-20T00:46:51.199Z,16.48
2023-05-20T00:49:18.806Z,16.40
2023-05-20T00:51:47.375Z,16.34
2023-05-20T00:54:15.174Z,16.29
2023-05-20T00:56:46.660Z,16.22
2023-05-20T00:59:14.461Z,16.18
2023-05-20T01:01:43.169Z,16.18
2023-05-20T01:04:10.514Z,16.14
2023-05-20T01:06:43.289Z,16.11
2023-05-20T01:09:14.045Z,16.06
2023-05-20T01:11:53.139Z,16.00
2023-05-20T01:14:24.041Z,15.96
2023-05-20T01:16:58.085Z,15.89
2023-05-20T01:19:51.626Z,15.83
2023-05-20T01:22:28.197Z,15.80
2023-05-20T01:24:55.254Z,15.78
2023-05-20T01:27:24.222Z,15.76
2023-05-20T01:29:52.901Z,15.73
2023-05-20T01:32:28.941Z,15.71
2023-05-20T01:34:57.166Z,15.69
2023-05-20T01:37:26.017Z,15.69
2023-05-20T01:39:54.325Z,15.63
2023-05-20T01:42:22.905Z,15.57
2023-05-20T01:44:49.866Z,15.56
2023-05-20T01:47:16.714Z,15.53
2023-05-20T01:49:46.220Z,15.53
2023-05-20T01:52:13.365Z,15.51
2023-05-20T01:54:40.381Z,15.49
2023-05-20T01:57:07.278Z,15.44
2023-05-20T01:59:34.067Z,15.41
2023-05-20T02:02:01.409Z,15.39
2023-05-20T02:04:28.505Z,15.35
2023-05-20T02:06:58.616Z,15.33
2023-05-20T02:09:25.746Z,15.36
2023-05-20T02:11:54.336Z,15.50
2023-05-20T02:14:21.290Z,15.60
2023-05-20T02:16:48.326Z,15.68
2023-05-20T02:19:21.687Z,15.72
2023-05-20T02:21:49.119Z,15.73
2023-05-20T02:24:16.748Z,15.69
2023-05-20T02:26:46.046Z,15.65
2023-05-20T02:29:12.775Z,15.59
2023-05-20T02:31:39.586Z,15.53
2023-05-20T02:34:06.488Z,15.45
2023-05-20T02:36:33.644Z,15.32
2023-05-20T02:39:02.535Z,15.23
2023-05-20T02:41:31.311Z,15.15
2023-05-20T02:43:58.180Z,15.07
2023-05-20T02:46:25.664Z,15.04
2023-05-20T02:48:52.551Z,15.01
2023-05-20T02:51:19.476Z,15.01
2023-05-20T02:53:46.617Z,15.01
2023-05-20T02:56:13.964Z,15.02
2023-05-20T02:58:42.561Z,14.99
2023-05-20T03:01:09.450Z,14.97
2023-05-20T03:03:38.221Z,14.89
2023-05-20T03:06:05.157Z,14.90
2023-05-20T03:08:31.950Z,14.94
2023-05-20T03:10:58.855Z,14.92
2023-05-20T03:13:25.836Z,14.90
2023-05-20T03:15:53.340Z,14.93
2023-05-20T03:18:20.300Z,14.95
2023-05-20T03:20:47.670Z,15.00
2023-05-20T03:23:14.509Z,15.02
2023-05-20T03:25:41.532Z,15.07
2023-05-20T03:28:08.416Z,15.11
2023-05-20T03:30:37.281Z,15.11
2023-05-20T03:33:06.056Z,15.12
2023-05-20T03:35:33.344Z,15.15
2023-05-20T03:38:04.473Z,15.17
2023-05-20T03:40:33.651Z,15.16
2023-05-20T03:43:00.731Z,15.21
2023-05-20T03:45:27.824Z,15.26
2023-05-20T03:48:05.086Z,15.31
2023-05-20T03:50:34.750Z,15.37
2023-05-20T03:53:01.727Z,15.42
2023-05-20T03:55:35.287Z,15.42
2023-05-20T03:58:03.346Z,15.42
2023-05-20T04:00:32.008Z,15.42
2023-05-20T04:02:59.394Z,15.41
2023-05-20T04:05:26.984Z,15.40
2023-05-20T04:07:57.474Z,15.43
2023-05-20T04:10:25.041Z,15.45
2023-05-20T04:12:52.641Z,15.47
2023-05-20T04:15:20.492Z,15.45
2023-05-20T04:17:56.487Z,15.40
2023-05-20T04:20:24.561Z,15.43
2023-05-20T04:22:55.568Z,15.48
2023-05-20T04:25:22.611Z,15.53
2023-05-20T04:27:50.385Z,15.53
2023-05-20T04:30:18.631Z,15.46
2023-05-20T04:32:45.662Z,15.38
2023-05-20T04:35:16.203Z,15.34
2023-05-20T04:37:48.122Z,15.34
2023-05-20T04:40:15.318Z,15.33
2023-05-20T04:42:43.940Z,15.38
2023-05-20T04:45:12.494Z,15.48
2023-05-20T04:47:41.986Z,15.47
2023-05-20T04:50:11.221Z,15.49
2023-05-20T04:52:42.075Z,15.59
2023-05-20T04:55:10.704Z,15.67
2023-05-20T04:57:41.609Z,15.72
2023-05-20T05:00:10.528Z,15.80
2023-05-20T05:02:37.944Z,15.89
2023-05-20T05:05:05.431Z,15.94
2023-05-20T05:07:32.334Z,15.97
2023-05-20T05:09:59.153Z,15.95
2023-05-20T05:12:28.252Z,15.99
2023-05-20T05:14:57.019Z,16.00
2023-05-20T05:17:24.002Z,16.01
2023-05-20T05:19:51.718Z,16.01
2023-05-20T05:22:18.616Z,16.06
2023-05-20T05:24:45.644Z,16.07
2023-05-20T05:27:12.490Z,16.06
2023-05-20T05:29:39.417Z,16.12
2023-05-20T05:32:06.676Z,16.26
2023-05-20T05:34:33.711Z,16.39
2023-05-20T05:37:00.628Z,16.40
2023-05-20T05:39:27.604Z,16.47
2023-05-20T05:41:56.390Z,16.61
2023-05-20T05:44:24.761Z,16.70
2023-05-20T05:46:51.942Z,16.79
2023-05-20T05:49:18.962Z,16.90
2023-05-20T05:51:45.855Z,17.06
2023-05-20T05:54:13.438Z,17.19
2023-05-20T05:56:40.706Z,17.27
2023-05-20T05:59:08.483Z,17.29
2023-05-20T06:01:35.442Z,17.38
2023-05-20T06:04:02.523Z,17.49
2023-05-20T06:06:31.895Z,17.57
2023-05-20T06:08:58.885Z,17.64
2023-05-20T06:11:26.672Z,17.80
2023-05-20T06:13:53.597Z,17.99
2023-05-20T06:16:20.803Z,18.14
2023-05-20T06:18:50.793Z,18.25
2023-05-20T06:21:18.636Z,18.33
2023-05-20T06:23:45.430Z,18.41
2023-05-20T06:26:13.738Z,18.60
2023-05-20T06:28:41.894Z,18.67
2023-05-20T06:31:09.243Z,18.78
2023-05-20T06:33:36.751Z,18.94
2023-05-20T06:36:08.350Z,19.12
2023-05-20T06:38:35.423Z,19.23
2023-05-20T06:41:05.168Z,19.40
2023-05-20T06:43:33.207Z,19.55
2023-05-20T06:46:39.087Z,19.55
2023-05-20T06:49:10.866Z,19.71
2023-05-20T06:51:37.898Z,19.89
2023-05-20T06:54:05.166Z,20.06
2023-05-20T06:56:32.179Z,20.19
2023-05-20T06:59:00.231Z,20.28
2023-05-20T07:01:27.985Z,20.39
2023-05-20T07:03:55.919Z,20.64
2023-05-20T07:06:23.316Z,20.80
2023-05-20T07:08:50.393Z,21.03
2023-05-20T07:11:18.567Z,21.17
2023-05-20T07:13:45.672Z,21.24
2023-05-20T07:16:12.584Z,21.41
2023-05-20T07:18:45.285Z,21.58
2023-05-20T07:21:12.383Z,21.55
2023-05-20T07:24:06.057Z,21.61
2023-05-20T07:26:36.352Z,21.73
2023-05-20T07:31:33.907Z,21.57
2023-05-20T07:34:00.978Z,21.59
2023-05-20T07:36:29.069Z,22.63
2023-05-20T07:39:03.973Z,23.07
2023-05-20T07:41:35.793Z,23.56
2023-05-20T07:44:05.177Z,23.55
2023-05-20T07:46:35.327Z,23.16
2023-05-20T07:49:05.685Z,23.09
2023-05-20T07:51:33.798Z,22.95
2023-05-20T07:54:02.154Z,22.77
2023-05-20T07:56:29.674Z,22.69
2023-05-20T07:58:59.453Z,22.61
2023-05-20T08:01:30.889Z,22.54
2023-05-20T08:03:58.328Z,22.45
2023-05-20T08:06:27.891Z,22.83
2023-05-20T08:08:57.641Z,23.37
2023-05-20T08:11:30.122Z,23.39
2023-05-20T08:13:57.610Z,23.20
2023-05-20T08:16:27.230Z,23.18
2023-05-20T08:18:55.167Z,25.67
2023-05-20T08:21:22.196Z,30.54
2023-05-20T08:23:50.669Z,34.59
2023-05-20T08:26:18.032Z,37.49
2023-05-20T08:28:45.071Z,39.18
2023-05-20T08:31:13.596Z,40.65
2023-05-20T08:33:41.143Z,42.16
2023-05-20T08:36:08.519Z,43.38
2023-05-20T08:38:36.745Z,43.85
2023-05-20T08:41:04.396Z,44.52
2023-05-20T08:43:32.640Z,45.34
2023-05-20T08:46:02.456Z,45.14
2023-05-20T08:48:32.508Z,45.15
2023-05-20T08:51:00.245Z,45.48
2023-05-20T08:53:27.114Z,46.11
2023-05-20T08:56:02.976Z,46.90
2023-05-20T08:58:33.111Z,47.46
2023-05-20T09:01:00.231Z,47.66
2023-05-20T09:03:27.160Z,48.12
2023-05-20T09:05:54.304Z,48.70
2023-05-20T09:08:27.933Z,48.65
2023-05-20T09:10:54.804Z,48.58
2023-05-20T09:13:24.103Z,48.37
2023-05-20T09:15:52.059Z,48.80
2023-05-20T09:18:19.174Z,48.36
2023-05-20T09:20:51.085Z,49.01
2023-05-20T09:23:20.587Z,48.67
2023-05-20T09:25:50.110Z,47.70
2023-05-20T09:28:17.899Z,48.02
2023-05-20T09:30:46.087Z,48.51
2023-05-20T09:33:14.011Z,48.50
2023-05-20T09:35:42.012Z,48.69
2023-05-20T09:38:10.655Z,49.55
2023-05-20T09:40:40.749Z,50.41
2023-05-20T09:43:12.362Z,51.23
2023-05-20T09:45:39.955Z,50.47
2023-05-20T09:48:09.258Z,50.86
2023-05-20T09:50:36.993Z,51.90
2023-05-20T09:53:04.853Z,50.96
2023-05-20T09:55:32.338Z,48.26
2023-05-20T09:58:03.276Z,47.82
2023-05-20T10:00:30.421Z,46.78
2023-05-20T10:02:57.883Z,44.74
2023-05-20T10:05:35.194Z,45.27
2023-05-20T10:08:46.582Z,46.94
2023-05-20T10:11:25.824Z,49.06
2023-05-20T10:14:02.619Z,51.06
2023-05-20T10:16:48.344Z,51.14
2023-05-20T10:19:30.361Z,51.81
2023-05-20T10:22:02.486Z,51.92
2023-05-20T10:24:42.029Z,53.03
2023-05-20T10:27:15.805Z,52.39
2023-05-20T10:30:03.976Z,51.92
2023-05-20T10:32:34.389Z,52.11
2023-05-20T10:35:06.217Z,52.06
2023-05-20T10:37:44.541Z,52.04
2023-05-20T10:40:16.508Z,51.66
2023-05-20T10:42:44.079Z,51.75
2023-05-20T10:45:11.358Z,51.42
2023-05-20T10:47:53.693Z,51.84
2023-05-20T10:50:35.639Z,50.33
2023-05-20T10:53:05.332Z,51.51
2023-05-20T10:55:37.470Z,52.64
2023-05-20T10:58:06.078Z,53.94
2023-05-20T11:00:37.419Z,54.90
2023-05-20T11:03:05.934Z,53.79
2023-05-20T11:05:33.719Z,54.04
2023-05-20T11:08:11.001Z,54.17
2023-05-20T11:10:51.475Z,53.50
2023-05-20T11:13:18.791Z,53.47
2023-05-20T11:15:46.367Z,54.46
2023-05-20T11:18:17.061Z,55.14
2023-05-20T11:20:46.880Z,52.77
2023-05-20T11:23:15.454Z,50.23
2023-05-20T11:25:43.833Z,47.09
2023-05-20T11:28:14.658Z,43.97
2023-05-20T11:30:45.369Z,40.85
2023-05-20T11:33:14.168Z,38.88
2023-05-20T11:35:53.182Z,37.40
2023-05-20T11:38:21.682Z,36.22
2023-05-20T11:40:54.210Z,36.45
2023-05-20T11:43:22.331Z,37.19
2023-05-20T11:45:55.493Z,38.73
2023-05-20T11:48:22.735Z,38.47
2023-05-20T11:50:50.050Z,38.46
2023-05-20T11:53:19.067Z,38.67
2023-05-20T11:56:04.165Z,37.50
2023-05-20T11:58:33.009Z,35.60
2023-05-20T12:01:09.503Z,36.76
2023-05-20T12:03:47.458Z,39.78
2023-05-20T12:06:14.635Z,40.24
2023-05-20T12:08:41.788Z,38.05
2023-05-20T12:11:09.074Z,36.27
2023-05-20T12:13:36.088Z,35.64
2023-05-20T12:16:04.411Z,34.91
2023-05-20T12:18:31.724Z,34.31
2023-05-20T12:21:10.698Z,33.53
2023-05-20T12:23:51.537Z,33.01
2023-05-20T12:26:18.387Z,32.70
2023-05-20T12:28:45.315Z,32.46
2023-05-20T12:31:12.443Z,31.88
2023-05-20T12:33:39.350Z,31.68
2023-05-20T12:36:07.355Z,31.94
2023-05-20T12:38:34.298Z,31.98
2023-05-20T12:41:02.054Z,31.59
2023-05-20T12:43:28.898Z,31.26
2023-05-20T12:45:56.261Z,30.74
2023-05-20T12:48:23.546Z,30.00
2023-05-20T12:50:51.045Z,29.32
2023-05-20T12:53:18.188Z,28.93
2023-05-20T12:55:45.405Z,28.86
2023-05-20T12:58:15.384Z,28.95
2023-05-20T13:00:43.543Z,29.24
2023-05-20T13:03:10.737Z,29.33
2023-05-20T13:05:39.519Z,29.33
2023-05-20T13:08:06.700Z,29.21
2023-05-20T13:10:33.909Z,29.22
2023-05-20T13:13:01.071Z,29.37
2023-05-20T13:15:28.008Z,29.78
2023-05-20T13:17:54.958Z,30.09
2023-05-20T13:20:22.115Z,30.27
2023-05-20T13:22:50.372Z,30.32
2023-05-20T13:25:17.665Z,30.06
2023-05-20T13:27:44.456Z,29.78
2023-05-20T13:30:11.538Z,29.46
2023-05-20T13:32:38.399Z,29.69
2023-05-20T13:35:16.165Z,29.90
2023-05-20T13:37:46.345Z,29.81
2023-05-20T13:40:13.531Z,29.54
2023-05-20T13:42:40.954Z,29.27
2023-05-20T13:45:10.465Z,29.12
2023-05-20T13:47:37.249Z,28.98
2023-05-20T13:50:06.970Z,28.96
2023-05-20T13:52:33.817Z,28.93
2023-05-20T13:55:00.626Z,28.76
2023-05-20T13:57:28.304Z,28.58
2023-05-20T13:59:55.244Z,28.60
2023-05-20T14:02:25.221Z,28.74
2023-05-20T14:04:52.027Z,29.07
2023-05-20T14:07:18.855Z,29.33
2023-05-20T14:09:45.806Z,29.35
2023-05-20T14:12:12.561Z,29.24
2023-05-20T14:14:39.585Z,29.34
2023-05-20T14:17:06.457Z,29.45
2023-05-20T14:19:33.371Z,29.27
2023-05-20T14:22:01.252Z,29.10
2023-05-20T14:24:30.872Z,28.78
2023-05-20T14:26:58.738Z,28.40
2023-05-20T14:29:25.804Z,28.18
2023-05-20T14:31:54.050Z,28.41
2023-05-20T14:34:25.565Z,28.79
2023-05-20T14:36:53.221Z,29.04
2023-05-20T14:39:22.537Z,29.06
2023-05-20T14:41:49.418Z,28.85
2023-05-20T14:44:19.349Z,28.73
2023-05-20T14:46:48.018Z,28.89
2023-05-20T14:49:16.395Z,29.37
2023-05-20T14:51:43.550Z,29.57
2023-05-20T14:54:10.481Z,29.74
2023-05-20T14:56:38.141Z,29.83
2023-05-20T14:59:05.011Z,29.64
2023-05-20T15:01:31.949Z,29.26
2023-05-20T15:04:00.563Z,29.16
2023-05-20T15:06:27.580Z,29.16
2023-05-20T15:08:54.497Z,28.92
2023-05-20T15:11:24.510Z,28.54
2023-05-20T15:13:51.423Z,28.33
2023-05-20T15:16:19.545Z,28.29
2023-05-20T15:18:46.582Z,28.33
2023-05-20T15:21:15.280Z,28.35
2023-05-20T15:23:42.409Z,28.13
2023-05-20T15:26:12.124Z,27.95
2023-05-20T15:28:41.705Z,27.90
2023-05-20T15:31:08.595Z,27.86
2023-05-20T15:33:35.908Z,27.79
2023-05-20T15:36:02.776Z,27.66
2023-05-20T15:38:29.796Z,27.72
2023-05-20T15:40:56.490Z,27.71
2023-05-20T15:43:23.721Z,27.61
2023-05-20T15:45:51.955Z,27.38
2023-05-20T15:48:20.662Z,27.27
2023-05-20T15:50:47.518Z,27.14
2023-05-20T15:53:14.769Z,26.93
2023-05-20T15:55:42.837Z,26.77
2023-05-20T15:58:10.195Z,26.55
2023-05-20T16:00:38.438Z,26.38
2023-05-20T16:03:05.342Z,26.33
2023-05-20T16:05:32.412Z,26.26
2023-05-20T16:07:59.922Z,26.22
2023-05-20T16:10:35.154Z,26.13
2023-05-20T16:13:02.202Z,26.04
2023-05-20T16:15:35.617Z,25.91
2023-05-20T16:18:03.197Z,25.87
2023-05-20T16:20:30.502Z,25.89
2023-05-20T16:22:57.539Z,25.81
2023-05-20T16:25:24.418Z,25.73
2023-05-20T16:27:51.209Z,25.70
2023-05-20T16:30:18.147Z,25.79
2023-05-20T16:32:45.187Z,25.98
2023-05-20T16:35:13.007Z,26.18
2023-05-20T16:37:40.600Z,26.36
2023-05-20T16:40:10.064Z,26.60
2023-05-20T16:42:37.277Z,26.61
2023-05-20T16:45:06.545Z,26.47
2023-05-20T16:47:34.472Z,26.38
2023-05-20T16:50:01.483Z,26.36
2023-05-20T16:52:28.383Z,26.37
2023-05-20T16:54:57.372Z,26.35
2023-05-20T16:57:24.234Z,26.41
2023-05-20T16:59:51.514Z,26.44
2023-05-20T17:02:18.431Z,26.46
2023-05-20T17:04:45.612Z,26.47
2023-05-20T17:07:15.580Z,26.37
2023-05-20T17:09:42.404Z,26.31
2023-05-20T17:12:09.310Z,26.24
2023-05-20T17:14:37.006Z,26.25
2023-05-20T17:17:04.273Z,26.18
2023-05-20T17:19:31.245Z,26.08
2023-05-20T17:21:58.343Z,25.95
2023-05-20T17:24:25.028Z,25.85
2023-05-20T17:26:54.820Z,25.62
2023-05-20T17:29:21.841Z,25.42
2023-05-20T17:31:49.232Z,25.21
2023-05-20T17:34:16.085Z,24.93
2023-05-20T17:36:43.596Z,24.71
2023-05-20T17:39:10.453Z,24.59
2023-05-20T17:41:40.518Z,24.52
2023-05-20T17:44:08.948Z,24.44
2023-05-20T17:46:36.019Z,24.44
2023-05-20T17:49:03.892Z,24.39
2023-05-20T17:51:31.893Z,24.35
2023-05-20T17:53:58.956Z,24.32
2023-05-20T17:56:26.671Z,24.25
2023-05-20T17:58:54.940Z,24.20
2023-05-20T18:01:23.475Z,24.14
2023-05-20T18:03:50.786Z,24.09
2023-05-20T18:06:19.482Z,24.08
2023-05-20T18:08:46.732Z,24.05
2023-05-20T18:11:13.792Z,23.98
2023-05-20T18:13:40.663Z,23.95
2023-05-20T18:16:10.632Z,23.92
2023-05-20T18:18:37.719Z,23.86
2023-05-20T18:21:07.549Z,23.79
2023-05-20T18:23:37.311Z,23.68
2023-05-20T18:26:07.002Z,23.59
2023-05-20T18:28:33.918Z,23.55
2023-05-20T18:31:01.010Z,23.49
2023-05-20T18:33:28.013Z,23.41
2023-05-20T18:36:00.585Z,23.38
2023-05-20T18:38:27.461Z,23.35
2023-05-20T18:40:55.311Z,23.33
2023-05-20T18:43:25.563Z,23.28
2023-05-20T18:45:53.218Z,23.25
2023-05-20T18:48:26.625Z,23.15
2023-05-20T18:50:58.697Z,23.00
2023-05-20T18:53:25.588Z,22.86
2023-05-20T18:55:52.667Z,22.77
2023-05-20T18:58:19.658Z,22.70
2023-05-20T19:00:46.652Z,22.64
2023-05-20T19:03:13.740Z,22.61
2023-05-20T19:05:40.982Z,22.56
2023-05-20T19:08:09.457Z,22.48
2023-05-20T19:10:37.425Z,22.43
2023-05-20T19:13:04.622Z,22.34
2023-05-20T19:15:31.618Z,22.31
2023-05-20T19:17:58.807Z,22.26
2023-05-20T19:20:25.755Z,22.22
2023-05-20T19:22:55.308Z,22.16
2023-05-20T19:25:25.825Z,22.14
2023-05-20T19:27:53.198Z,22.08
2023-05-20T19:30:20.250Z,22.03
2023-05-20T19:32:47.092Z,21.98
2023-05-20T19:35:14.505Z,21.95
2023-05-20T19:37:43.542Z,21.84
2023-05-20T19:40:12.248Z,21.76
2023-05-20T19:42:39.067Z,21.68
2023-05-20T19:45:06.839Z,21.65
2023-05-20T19:47:33.938Z,21.65
2023-05-20T19:50:01.514Z,21.60
2023-05-20T19:52:28.427Z,21.57
2023-05-20T19:54:57.333Z,21.54
2023-05-20T19:57:28.861Z,21.50
2023-05-20T19:59:56.745Z,21.47
2023-05-20T20:02:23.733Z,21.45
2023-05-20T20:04:51.780Z,21.41
2023-05-20T20:07:19.841Z,21.39
2023-05-20T20:09:48.605Z,21.35
2023-05-20T20:12:18.842Z,21.33
2023-05-20T20:14:46.218Z,21.34
2023-05-20T20:17:15.837Z,21.31
2023-05-20T20:19:48.531Z,21.23
2023-05-20T20:22:20.344Z,21.17
2023-05-20T20:24:50.754Z,21.13
2023-05-20T20:27:19.271Z,21.00
2023-05-20T20:29:47.069Z,20.94
2023-05-20T20:32:18.838Z,20.91
2023-05-20T20:34:54.993Z,20.87
2023-05-20T20:37:27.519Z,20.87
2023-05-20T20:39:55.258Z,20.82
2023-05-20T20:42:23.670Z,20.79
2023-05-20T20:44:53.286Z,20.77
2023-05-20T20:47:20.407Z,20.69
2023-05-20T20:49:48.394Z,20.59
2023-05-20T20:52:23.761Z,20.57
2023-05-20T20:54:50.687Z,20.54
2023-05-20T20:57:21.353Z,20.54
2023-05-20T20:59:48.411Z,20.54
2023-05-20T21:02:18.499Z,20.53
2023-05-20T21:04:45.363Z,20.53
2023-05-20T21:07:12.577Z,20.51
2023-05-20T21:09:40.057Z,20.49
2023-05-20T21:12:09.801Z,20.45
2023-05-20T21:14:36.820Z,20.43
2023-05-20T21:17:05.330Z,20.41
2023-05-20T21:19:32.782Z,20.38
2023-05-20T21:21:59.911Z,20.35
2023-05-20T21:24:30.123Z,20.34
2023-05-20T21:26:56.898Z,20.33
2023-05-20T21:29:23.805Z,20.32
2023-05-20T21:31:50.607Z,20.28
2023-05-20T21:34:17.395Z,20.21
2023-05-20T21:36:44.686Z,20.16
2023-05-20T21:39:18.990Z,20.14
2023-05-20T21:41:53.642Z,20.14
2023-05-20T21:44:20.891Z,20.11
2023-05-20T21:46:47.818Z,20.10
2023-05-20T21:49:14.598Z,20.08
2023-05-20T21:51:42.936Z,20.04
2023-05-20T21:56:56.119Z,19.97
2023-05-20T21:59:26.309Z,19.95
2023-05-20T22:01:59.540Z,19.94
2023-05-20T22:04:29.816Z,19.94
2023-05-20T22:07:00.910Z,19.91
2023-05-20T22:09:30.979Z,19.83
2023-05-20T22:12:01.298Z,19.76
2023-05-20T22:14:29.241Z,19.77
2023-05-20T22:17:02.432Z,19.76
2023-05-20T22:19:33.410Z,19.72
2023-05-20T22:22:03.561Z,19.73
2023-05-20T22:24:30.756Z,19.72
2023-05-20T22:27:02.080Z,19.68
2023-05-20T22:29:31.573Z,19.61
2023-05-20T22:31:59.028Z,19.57
2023-05-20T22:34:26.419Z,19.53
2023-05-20T22:36:54.021Z,19.49
2023-05-20T22:39:21.617Z,19.47
2023-05-20T22:41:48.555Z,19.47
2023-05-20T22:44:15.483Z,19.47
2023-05-20T22:46:42.226Z,19.42
2023-05-20T22:49:10.588Z,19.37
2023-05-20T22:51:38.763Z,19.37
2023-05-20T22:54:07.045Z,19.36
2023-05-20T22:56:34.470Z,19.32
2023-05-20T22:59:02.281Z,19.29
2023-05-20T23:01:29.686Z,19.26
2023-05-20T23:03:56.642Z,19.23
2023-05-20T23:06:23.638Z,19.22
2023-05-20T23:08:51.026Z,19.19
2023-05-20T23:11:17.847Z,19.15
2023-05-20T23:13:45.170Z,19.17
2023-05-20T23:16:12.261Z,19.16
2023-05-20T23:18:39.554Z,19.18
2023-05-20T23:21:06.301Z,19.17
2023-05-20T23:23:33.088Z,19.15
2023-05-20T23:26:00.225Z,19.15
2023-05-20T23:28:27.064Z,19.19
2023-05-20T23:30:54.776Z,19.24
2023-05-20T23:33:25.501Z,19.26
2023-05-20T23:35:55.461Z,19.23
2023-05-20T23:38:22.243Z,19.17
2023-05-20T23:40:49.709Z,19.12
2023-05-20T23:43:24.125Z,19.13
2023-05-20T23:45:50.917Z,19.11
2023-05-20T23:48:18.011Z,19.11
2023-05-20T23:50:46.120Z,19.08
2023-05-20T23:53:12.952Z,19.05
2023-05-20T23:55:39.652Z,19.03
2023-05-20T23:58:06.366Z,19.02
